Duvernay, Canada
Current Conditions -  °F | °C
As of 5:00 PM on Thursday 18 Dec 2014 (Local Time) from CYUL Reporting Station
Overcast Overcast  
Wind Chill: 21°   Ceiling: 2500
Heat Index: 30°   Visibility: 15mi
Dew Point: 25°   Wind: 10mph
Humidity: 80%   Direction: 280°W
Pressure: 29.91"   Gusts: NA
Location:  45.57°N, 73.85°W
Report Text: CYUL 182200Z 28009KT 15SM FEW012 BKN025 OVC050 M01/M04 A2991 RMK SC1SC6SC2 SC TR SLP131
Loading
Personal Weather Stations






























Interactive Weather Map New forecast layout! Learn more

10-Day Weather Forecast

Advertisements
Track Severe Weather on mobile